Terminal Aerodrome Forecast
Issued by NWS Twin Cities, MN

Home | Current Version | Previous Version | Text Only | Print | Product List | Glossary On
Versions: 1 2 3 4 5 6 7 8 9 10 11 12
000
FTUS43 KMPX 272300
TAFEAU
TAF
KEAU 272326Z 2800/2824 24005KT P6SM SKC
     FM280600 24003KT P6SM SCT070
     FM281200 30004KT P6SM SCT015 BKN025
     FM282200 35005KT P6SM SCT015=

USA.gov is the U.S. government's official web portal to all federal, state and local government web resources and services.